sensor_id;sensor_type;location;lat;lon;timestamp;temperature;humidity
19017;DHT22;9641;51.494;6.670;2023-04-03T00:01:36;1.50;99.90
19017;DHT22;9641;51.494;6.670;2023-04-03T00:04:04;1.40;99.90
19017;DHT22;9641;51.494;6.670;2023-04-03T00:06:31;1.40;99.90
19017;DHT22;9641;51.494;6.670;2023-04-03T00:08:58;1.40;99.90
19017;DHT22;9641;51.494;6.670;2023-04-03T00:11:25;1.40;99.90
19017;DHT22;9641;51.494;6.670;2023-04-03T00:13:54;1.40;99.90
19017;DHT22;9641;51.494;6.670;2023-04-03T00:16:20;1.50;99.90
19017;DHT22;9641;51.494;6.670;2023-04-03T00:18:47;1.40;99.90
19017;DHT22;9641;51.494;6.670;2023-04-03T00:21:14;1.40;99.90
19017;DHT22;9641;51.494;6.670;2023-04-03T00:23:42;1.30;99.90
19017;DHT22;9641;51.494;6.670;2023-04-03T00:26:08;1.30;99.90
19017;DHT22;9641;51.494;6.670;2023-04-03T00:28:37;1.30;99.90
19017;DHT22;9641;51.494;6.670;2023-04-03T00:31:06;1.30;99.90
19017;DHT22;9641;51.494;6.670;2023-04-03T00:33:33;1.30;99.90
19017;DHT22;9641;51.494;6.670;2023-04-03T00:36:05;1.30;99.90
19017;DHT22;9641;51.494;6.670;2023-04-03T00:38:32;1.20;99.90
19017;DHT22;9641;51.494;6.670;2023-04-03T00:40:59;1.20;99.90
19017;DHT22;9641;51.494;6.670;2023-04-03T00:43:26;1.20;99.90
19017;DHT22;9641;51.494;6.670;2023-04-03T00:45:54;1.20;99.90
19017;DHT22;9641;51.494;6.670;2023-04-03T00:48:26;1.20;99.90
19017;DHT22;9641;51.494;6.670;2023-04-03T00:50:53;1.10;99.90
19017;DHT22;9641;51.494;6.670;2023-04-03T00:53:23;1.10;99.90
19017;DHT22;9641;51.494;6.670;2023-04-03T00:55:52;1.20;99.90
19017;DHT22;9641;51.494;6.670;2023-04-03T00:58:26;1.30;99.90
19017;DHT22;9641;51.494;6.670;2023-04-03T01:00:56;1.40;99.90
19017;DHT22;9641;51.494;6.670;2023-04-03T01:03:25;1.40;99.90
19017;DHT22;9641;51.494;6.670;2023-04-03T01:05:54;1.40;99.90
19017;DHT22;9641;51.494;6.670;2023-04-03T01:08:20;1.40;99.90
19017;DHT22;9641;51.494;6.670;2023-04-03T01:10:48;1.30;99.90
19017;DHT22;9641;51.494;6.670;2023-04-03T01:13:24;1.30;99.90
19017;DHT22;9641;51.494;6.670;2023-04-03T01:15:51;1.20;99.90
19017;DHT22;9641;51.494;6.670;2023-04-03T01:18:18;1.20;99.90
19017;DHT22;9641;51.494;6.670;2023-04-03T01:23:59;1.20;99.90
19017;DHT22;9641;51.494;6.670;2023-04-03T01:26:32;1.20;99.90
19017;DHT22;9641;51.494;6.670;2023-04-03T01:28:59;1.20;99.90
19017;DHT22;9641;51.494;6.670;2023-04-03T01:31:29;1.20;99.90
19017;DHT22;9641;51.494;6.670;2023-04-03T01:33:59;1.20;99.90
19017;DHT22;9641;51.494;6.670;2023-04-03T01:36:29;1.30;99.90
19017;DHT22;9641;51.494;6.670;2023-04-03T01:38:58;1.40;99.90
19017;DHT22;9641;51.494;6.670;2023-04-03T01:41:26;1.40;99.90
19017;DHT22;9641;51.494;6.670;2023-04-03T01:43:59;1.40;99.90
19017;DHT22;9641;51.494;6.670;2023-04-03T01:46:26;1.50;99.90
19017;DHT22;9641;51.494;6.670;2023-04-03T01:48:53;1.50;99.90
19017;DHT22;9641;51.494;6.670;2023-04-03T01:51:21;1.50;99.90
19017;DHT22;9641;51.494;6.670;2023-04-03T01:53:48;1.50;99.90
19017;DHT22;9641;51.494;6.670;2023-04-03T01:56:15;1.40;99.90
19017;DHT22;9641;51.494;6.670;2023-04-03T01:58:42;1.50;99.90
19017;DHT22;9641;51.494;6.670;2023-04-03T02:01:09;1.50;99.90
19017;DHT22;9641;51.494;6.670;2023-04-03T02:03:36;1.50;99.90
19017;DHT22;9641;51.494;6.670;2023-04-03T02:06:03;1.50;99.90
19017;DHT22;9641;51.494;6.670;2023-04-03T02:08:32;1.50;99.90
19017;DHT22;9641;51.494;6.670;2023-04-03T02:10:59;1.50;99.90
19017;DHT22;9641;51.494;6.670;2023-04-03T02:13:25;1.50;99.90
19017;DHT22;9641;51.494;6.670;2023-04-03T02:15:52;1.50;99.90
19017;DHT22;9641;51.494;6.670;2023-04-03T02:18:19;1.50;99.90
19017;DHT22;9641;51.494;6.670;2023-04-03T02:20:47;1.40;99.90
19017;DHT22;9641;51.494;6.670;2023-04-03T02:23:14;1.40;99.90
19017;DHT22;9641;51.494;6.670;2023-04-03T02:25:42;1.40;99.90
19017;DHT22;9641;51.494;6.670;2023-04-03T02:28:09;1.40;99.90
19017;DHT22;9641;51.494;6.670;2023-04-03T02:30:36;1.30;99.90
19017;DHT22;9641;51.494;6.670;2023-04-03T02:33:03;1.30;99.90
19017;DHT22;9641;51.494;6.670;2023-04-03T02:35:31;1.30;99.90
19017;DHT22;9641;51.494;6.670;2023-04-03T02:37:58;1.30;99.90
19017;DHT22;9641;51.494;6.670;2023-04-03T02:40:25;1.20;99.90
19017;DHT22;9641;51.494;6.670;2023-04-03T02:42:53;1.20;99.90
19017;DHT22;9641;51.494;6.670;2023-04-03T02:45:22;1.20;99.90
19017;DHT22;9641;51.494;6.670;2023-04-03T02:47:49;1.30;99.90
19017;DHT22;9641;51.494;6.670;2023-04-03T02:50:16;1.40;99.90
19017;DHT22;9641;51.494;6.670;2023-04-03T02:52:43;1.50;99.90
19017;DHT22;9641;51.494;6.670;2023-04-03T02:55:13;1.40;99.90
19017;DHT22;9641;51.494;6.670;2023-04-03T02:57:40;1.40;99.90
19017;DHT22;9641;51.494;6.670;2023-04-03T03:00:10;1.30;99.90
19017;DHT22;9641;51.494;6.670;2023-04-03T03:02:37;1.20;99.90
19017;DHT22;9641;51.494;6.670;2023-04-03T03:05:04;1.30;99.90
19017;DHT22;9641;51.494;6.670;2023-04-03T03:07:31;1.30;99.90
19017;DHT22;9641;51.494;6.670;2023-04-03T03:09:58;1.30;99.90
19017;DHT22;9641;51.494;6.670;2023-04-03T03:12:26;1.20;99.90
19017;DHT22;9641;51.494;6.670;2023-04-03T03:14:53;1.10;99.90
19017;DHT22;9641;51.494;6.670;2023-04-03T03:17:21;1.10;99.90
19017;DHT22;9641;51.494;6.670;2023-04-03T03:19:48;1.10;99.90
19017;DHT22;9641;51.494;6.670;2023-04-03T03:22:15;1.10;99.90
19017;DHT22;9641;51.494;6.670;2023-04-03T03:24:42;1.10;99.90
19017;DHT22;9641;51.494;6.670;2023-04-03T03:27:09;1.10;99.90
19017;DHT22;9641;51.494;6.670;2023-04-03T03:29:37;1.10;99.90
19017;DHT22;9641;51.494;6.670;2023-04-03T03:32:05;1.00;99.90
19017;DHT22;9641;51.494;6.670;2023-04-03T03:34:36;1.00;99.90
19017;DHT22;9641;51.494;6.670;2023-04-03T03:37:03;1.10;99.90
19017;DHT22;9641;51.494;6.670;2023-04-03T03:39:30;1.10;99.90
19017;DHT22;9641;51.494;6.670;2023-04-03T03:41:57;1.20;99.90
19017;DHT22;9641;51.494;6.670;2023-04-03T03:44:23;1.40;99.90
19017;DHT22;9641;51.494;6.670;2023-04-03T03:46:52;1.50;99.90
19017;DHT22;9641;51.494;6.670;2023-04-03T03:49:19;1.50;99.90
19017;DHT22;9641;51.494;6.670;2023-04-03T03:51:47;1.50;99.90
19017;DHT22;9641;51.494;6.670;2023-04-03T03:54:16;1.50;99.90
19017;DHT22;9641;51.494;6.670;2023-04-03T03:56:43;1.40;99.90
19017;DHT22;9641;51.494;6.670;2023-04-03T03:59:11;1.30;99.90
19017;DHT22;9641;51.494;6.670;2023-04-03T04:01:38;1.30;99.90
19017;DHT22;9641;51.494;6.670;2023-04-03T04:04:05;1.30;99.90
19017;DHT22;9641;51.494;6.670;2023-04-03T04:06:32;1.30;99.90
19017;DHT22;9641;51.494;6.670;2023-04-03T04:09:05;1.30;99.90
19017;DHT22;9641;51.494;6.670;2023-04-03T04:11:32;1.30;99.90
19017;DHT22;9641;51.494;6.670;2023-04-03T04:13:59;1.20;99.90
19017;DHT22;9641;51.494;6.670;2023-04-03T04:16:28;1.10;99.90
19017;DHT22;9641;51.494;6.670;2023-04-03T04:18:58;1.20;99.90
19017;DHT22;9641;51.494;6.670;2023-04-03T04:21:25;1.10;99.90
19017;DHT22;9641;51.494;6.670;2023-04-03T04:23:53;1.10;99.90
19017;DHT22;9641;51.494;6.670;2023-04-03T04:26:22;1.10;99.90
19017;DHT22;9641;51.494;6.670;2023-04-03T04:28:49;1.10;99.90
19017;DHT22;9641;51.494;6.670;2023-04-03T04:31:17;1.00;99.90
19017;DHT22;9641;51.494;6.670;2023-04-03T04:33:45;1.10;99.90
19017;DHT22;9641;51.494;6.670;2023-04-03T04:36:13;1.00;99.90
19017;DHT22;9641;51.494;6.670;2023-04-03T04:38:43;1.10;99.90
19017;DHT22;9641;51.494;6.670;2023-04-03T04:41:10;1.00;99.90
19017;DHT22;9641;51.494;6.670;2023-04-03T04:43:38;1.10;99.90
19017;DHT22;9641;51.494;6.670;2023-04-03T04:46:07;1.00;99.90
19017;DHT22;9641;51.494;6.670;2023-04-03T04:48:41;0.90;99.90
19017;DHT22;9641;51.494;6.670;2023-04-03T04:51:09;1.00;99.90
19017;DHT22;9641;51.494;6.670;2023-04-03T04:53:38;1.00;99.90
19017;DHT22;9641;51.494;6.670;2023-04-03T04:56:05;1.00;99.90
19017;DHT22;9641;51.494;6.670;2023-04-03T04:58:34;1.00;99.90
19017;DHT22;9641;51.494;6.670;2023-04-03T05:01:04;1.10;99.90
19017;DHT22;9641;51.494;6.670;2023-04-03T05:03:34;1.00;99.90
19017;DHT22;9641;51.494;6.670;2023-04-03T05:06:02;1.00;99.90
19017;DHT22;9641;51.494;6.670;2023-04-03T05:08:31;1.00;99.90
19017;DHT22;9641;51.494;6.670;2023-04-03T05:10:59;1.00;99.90
19017;DHT22;9641;51.494;6.670;2023-04-03T05:13:27;1.00;99.90
19017;DHT22;9641;51.494;6.670;2023-04-03T05:15:55;1.10;99.90
19017;DHT22;9641;51.494;6.670;2023-04-03T05:18:24;1.10;99.90
19017;DHT22;9641;51.494;6.670;2023-04-03T05:20:53;1.00;99.90
19017;DHT22;9641;51.494;6.670;2023-04-03T05:23:21;1.00;99.90
19017;DHT22;9641;51.494;6.670;2023-04-03T05:25:48;1.00;99.90
19017;DHT22;9641;51.494;6.670;2023-04-03T05:28:17;1.00;99.90
19017;DHT22;9641;51.494;6.670;2023-04-03T05:30:44;1.00;99.90
19017;DHT22;9641;51.494;6.670;2023-04-03T05:33:12;0.90;99.90
19017;DHT22;9641;51.494;6.670;2023-04-03T05:35:48;1.00;99.90
19017;DHT22;9641;51.494;6.670;2023-04-03T05:38:20;1.00;99.90
19017;DHT22;9641;51.494;6.670;2023-04-03T05:40:47;1.00;99.90
19017;DHT22;9641;51.494;6.670;2023-04-03T05:43:14;1.00;99.90
19017;DHT22;9641;51.494;6.670;2023-04-03T05:45:47;1.00;99.90
19017;DHT22;9641;51.494;6.670;2023-04-03T05:48:14;1.10;99.90
19017;DHT22;9641;51.494;6.670;2023-04-03T05:50:42;1.10;99.90
19017;DHT22;9641;51.494;6.670;2023-04-03T05:53:22;1.10;99.90
19017;DHT22;9641;51.494;6.670;2023-04-03T05:55:53;1.20;99.90
19017;DHT22;9641;51.494;6.670;2023-04-03T05:58:20;1.20;99.90
19017;DHT22;9641;51.494;6.670;2023-04-03T06:00:50;1.20;99.90
19017;DHT22;9641;51.494;6.670;2023-04-03T06:03:17;1.30;99.90
19017;DHT22;9641;51.494;6.670;2023-04-03T06:05:44;1.30;99.90
19017;DHT22;9641;51.494;6.670;2023-04-03T06:08:12;1.30;99.90
19017;DHT22;9641;51.494;6.670;2023-04-03T06:10:41;1.30;99.90
19017;DHT22;9641;51.494;6.670;2023-04-03T06:13:08;1.40;99.90
19017;DHT22;9641;51.494;6.670;2023-04-03T06:15:35;1.50;99.90
19017;DHT22;9641;51.494;6.670;2023-04-03T06:18:02;1.50;99.90
19017;DHT22;9641;51.494;6.670;2023-04-03T06:20:29;1.50;99.90
19017;DHT22;9641;51.494;6.670;2023-04-03T06:22:56;1.60;98.40
19017;DHT22;9641;51.494;6.670;2023-04-03T06:25:23;1.60;92.50
19017;DHT22;9641;51.494;6.670;2023-04-03T06:27:52;1.70;91.80
19017;DHT22;9641;51.494;6.670;2023-04-03T06:30:21;1.70;92.50
19017;DHT22;9641;51.494;6.670;2023-04-03T06:32:48;1.80;63.40
19017;DHT22;9641;51.494;6.670;2023-04-03T06:35:15;1.80;56.80
19017;DHT22;9641;51.494;6.670;2023-04-03T06:37:42;1.80;66.40
19017;DHT22;9641;51.494;6.670;2023-04-03T06:40:15;1.90;49.60
19017;DHT22;9641;51.494;6.670;2023-04-03T06:42:45;2.00;32.80
19017;DHT22;9641;51.494;6.670;2023-04-03T06:45:13;2.10;22.80
19017;DHT22;9641;51.494;6.670;2023-04-03T06:47:41;2.20;1.00
19017;DHT22;9641;51.494;6.670;2023-04-03T06:50:09;2.30;1.00
19017;DHT22;9641;51.494;6.670;2023-04-03T06:52:37;2.40;1.00
19017;DHT22;9641;51.494;6.670;2023-04-03T06:55:05;2.50;1.00
19017;DHT22;9641;51.494;6.670;2023-04-03T06:57:32;2.50;1.00
19017;DHT22;9641;51.494;6.670;2023-04-03T06:59:59;2.60;1.00
19017;DHT22;9641;51.494;6.670;2023-04-03T07:02:28;2.60;1.00
19017;DHT22;9641;51.494;6.670;2023-04-03T07:04:55;2.60;1.00
19017;DHT22;9641;51.494;6.670;2023-04-03T07:07:21;2.70;1.00
19017;DHT22;9641;51.494;6.670;2023-04-03T07:09:48;2.70;1.00
19017;DHT22;9641;51.494;6.670;2023-04-03T07:12:18;2.80;1.00
19017;DHT22;9641;51.494;6.670;2023-04-03T07:14:45;2.80;1.00
19017;DHT22;9641;51.494;6.670;2023-04-03T07:17:12;2.90;1.00
19017;DHT22;9641;51.494;6.670;2023-04-03T07:19:40;2.90;1.00
19017;DHT22;9641;51.494;6.670;2023-04-03T07:22:07;3.00;1.00
19017;DHT22;9641;51.494;6.670;2023-04-03T07:24:34;3.00;1.00
19017;DHT22;9641;51.494;6.670;2023-04-03T07:27:02;3.10;1.00
19017;DHT22;9641;51.494;6.670;2023-04-03T07:29:29;3.10;1.00
19017;DHT22;9641;51.494;6.670;2023-04-03T07:31:55;3.10;1.00
19017;DHT22;9641;51.494;6.670;2023-04-03T07:34:22;3.30;1.00
19017;DHT22;9641;51.494;6.670;2023-04-03T07:36:50;3.30;99.90
19017;DHT22;9641;51.494;6.670;2023-04-03T07:39:17;3.30;1.00
19017;DHT22;9641;51.494;6.670;2023-04-03T07:41:44;3.40;1.00
19017;DHT22;9641;51.494;6.670;2023-04-03T07:44:11;3.50;99.90
19017;DHT22;9641;51.494;6.670;2023-04-03T07:46:38;3.60;29.70
19017;DHT22;9641;51.494;6.670;2023-04-03T07:49:06;3.60;99.90
19017;DHT22;9641;51.494;6.670;2023-04-03T07:51:33;3.60;1.00
19017;DHT22;9641;51.494;6.670;2023-04-03T07:54:02;3.70;1.00
19017;DHT22;9641;51.494;6.670;2023-04-03T07:56:29;3.70;1.00
19017;DHT22;9641;51.494;6.670;2023-04-03T07:58:57;3.90;1.00
19017;DHT22;9641;51.494;6.670;2023-04-03T08:01:26;3.90;99.90
19017;DHT22;9641;51.494;6.670;2023-04-03T08:03:53;3.90;1.00
19017;DHT22;9641;51.494;6.670;2023-04-03T08:06:20;4.00;99.90
19017;DHT22;9641;51.494;6.670;2023-04-03T08:08:47;4.10;1.00
19017;DHT22;9641;51.494;6.670;2023-04-03T08:11:15;4.10;99.90
19017;DHT22;9641;51.494;6.670;2023-04-03T08:13:44;4.20;1.00
19017;DHT22;9641;51.494;6.670;2023-04-03T08:16:13;4.30;99.90
19017;DHT22;9641;51.494;6.670;2023-04-03T08:18:42;4.40;99.90
19017;DHT22;9641;51.494;6.670;2023-04-03T08:21:09;4.40;1.00
19017;DHT22;9641;51.494;6.670;2023-04-03T08:23:37;4.40;1.00
19017;DHT22;9641;51.494;6.670;2023-04-03T08:26:09;4.50;99.90
19017;DHT22;9641;51.494;6.670;2023-04-03T08:28:37;4.60;78.70
19017;DHT22;9641;51.494;6.670;2023-04-03T08:31:05;4.70;1.00
19017;DHT22;9641;51.494;6.670;2023-04-03T08:33:33;4.80;1.00
19017;DHT22;9641;51.494;6.670;2023-04-03T08:36:02;4.80;1.00
19017;DHT22;9641;51.494;6.670;2023-04-03T08:38:29;4.90;1.00
19017;DHT22;9641;51.494;6.670;2023-04-03T08:41:01;4.90;1.00
19017;DHT22;9641;51.494;6.670;2023-04-03T08:43:37;4.90;1.00
19017;DHT22;9641;51.494;6.670;2023-04-03T08:46:11;4.90;1.00
19017;DHT22;9641;51.494;6.670;2023-04-03T08:48:41;5.10;1.00
19017;DHT22;9641;51.494;6.670;2023-04-03T08:51:13;5.20;1.00
19017;DHT22;9641;51.494;6.670;2023-04-03T08:53:45;5.20;1.00
19017;DHT22;9641;51.494;6.670;2023-04-03T08:56:14;5.20;1.00
19017;DHT22;9641;51.494;6.670;2023-04-03T08:58:49;5.30;1.00
19017;DHT22;9641;51.494;6.670;2023-04-03T09:01:20;5.40;1.00
19017;DHT22;9641;51.494;6.670;2023-04-03T09:03:50;5.50;1.00
19017;DHT22;9641;51.494;6.670;2023-04-03T09:06:20;5.40;1.00
19017;DHT22;9641;51.494;6.670;2023-04-03T09:09:04;5.50;1.00
19017;DHT22;9641;51.494;6.670;2023-04-03T09:11:43;5.60;1.00
19017;DHT22;9641;51.494;6.670;2023-04-03T09:14:20;5.50;1.00
19017;DHT22;9641;51.494;6.670;2023-04-03T09:16:51;5.50;1.00
19017;DHT22;9641;51.494;6.670;2023-04-03T09:19:25;5.60;1.00
19017;DHT22;9641;51.494;6.670;2023-04-03T09:21:56;5.60;1.00
19017;DHT22;9641;51.494;6.670;2023-04-03T09:24:24;5.70;1.00
19017;DHT22;9641;51.494;6.670;2023-04-03T09:26:55;5.90;1.00
19017;DHT22;9641;51.494;6.670;2023-04-03T09:29:26;5.90;99.90
19017;DHT22;9641;51.494;6.670;2023-04-03T09:31:56;6.00;99.90
19017;DHT22;9641;51.494;6.670;2023-04-03T09:34:25;6.00;99.90
19017;DHT22;9641;51.494;6.670;2023-04-03T09:36:54;5.90;99.90
19017;DHT22;9641;51.494;6.670;2023-04-03T09:39:23;5.90;99.90
19017;DHT22;9641;51.494;6.670;2023-04-03T09:41:59;6.00;99.90
19017;DHT22;9641;51.494;6.670;2023-04-03T09:44:30;6.10;99.90
19017;DHT22;9641;51.494;6.670;2023-04-03T09:46:58;6.20;99.90
19017;DHT22;9641;51.494;6.670;2023-04-03T09:49:25;6.10;99.90
19017;DHT22;9641;51.494;6.670;2023-04-03T09:51:52;6.10;99.90
19017;DHT22;9641;51.494;6.670;2023-04-03T09:54:32;6.30;99.90
19017;DHT22;9641;51.494;6.670;2023-04-03T09:57:03;6.30;99.90
19017;DHT22;9641;51.494;6.670;2023-04-03T09:59:32;6.30;99.90
19017;DHT22;9641;51.494;6.670;2023-04-03T10:02:00;6.40;99.90
19017;DHT22;9641;51.494;6.670;2023-04-03T10:04:38;6.50;99.90
19017;DHT22;9641;51.494;6.670;2023-04-03T10:07:27;6.50;99.90
19017;DHT22;9641;51.494;6.670;2023-04-03T10:09:55;6.60;99.90
19017;DHT22;9641;51.494;6.670;2023-04-03T10:12:22;6.60;99.90
19017;DHT22;9641;51.494;6.670;2023-04-03T10:14:56;6.80;99.90
19017;DHT22;9641;51.494;6.670;2023-04-03T10:17:32;6.90;99.90
19017;DHT22;9641;51.494;6.670;2023-04-03T10:20:07;7.10;99.90
19017;DHT22;9641;51.494;6.670;2023-04-03T10:22:41;7.10;99.90
19017;DHT22;9641;51.494;6.670;2023-04-03T10:25:21;7.10;99.90
19017;DHT22;9641;51.494;6.670;2023-04-03T10:27:55;7.10;99.90
19017;DHT22;9641;51.494;6.670;2023-04-03T10:30:36;7.30;99.90
19017;DHT22;9641;51.494;6.670;2023-04-03T10:33:17;7.30;99.90
19017;DHT22;9641;51.494;6.670;2023-04-03T10:35:53;7.30;99.90
19017;DHT22;9641;51.494;6.670;2023-04-03T10:38:33;7.30;99.90
19017;DHT22;9641;51.494;6.670;2023-04-03T10:41:10;7.40;99.90
19017;DHT22;9641;51.494;6.670;2023-04-03T10:43:43;7.60;99.90
19017;DHT22;9641;51.494;6.670;2023-04-03T10:46:20;7.70;99.90
19017;DHT22;9641;51.494;6.670;2023-04-03T10:49:06;7.90;99.90
19017;DHT22;9641;51.494;6.670;2023-04-03T10:51:41;7.70;99.90
19017;DHT22;9641;51.494;6.670;2023-04-03T10:54:12;7.80;99.90
19017;DHT22;9641;51.494;6.670;2023-04-03T10:56:41;7.90;99.90
19017;DHT22;9641;51.494;6.670;2023-04-03T10:59:19;7.90;99.90
19017;DHT22;9641;51.494;6.670;2023-04-03T11:01:52;9.10;99.90
19017;DHT22;9641;51.494;6.670;2023-04-03T11:04:21;11.00;99.90
19017;DHT22;9641;51.494;6.670;2023-04-03T11:06:56;11.10;99.90
19017;DHT22;9641;51.494;6.670;2023-04-03T11:09:27;11.50;99.90
19017;DHT22;9641;51.494;6.670;2023-04-03T11:11:58;13.20;99.90
19017;DHT22;9641;51.494;6.670;2023-04-03T11:14:30;14.00;99.90
19017;DHT22;9641;51.494;6.670;2023-04-03T11:17:05;12.90;99.90
19017;DHT22;9641;51.494;6.670;2023-04-03T11:19:40;12.70;99.90
19017;DHT22;9641;51.494;6.670;2023-04-03T11:22:14;13.30;99.90
19017;DHT22;9641;51.494;6.670;2023-04-03T11:24:50;13.00;99.90
19017;DHT22;9641;51.494;6.670;2023-04-03T11:27:22;13.60;99.90
19017;DHT22;9641;51.494;6.670;2023-04-03T11:29:51;14.90;99.90
19017;DHT22;9641;51.494;6.670;2023-04-03T11:35:27;15.40;99.90
19017;DHT22;9641;51.494;6.670;2023-04-03T11:37:55;15.60;99.90
19017;DHT22;9641;51.494;6.670;2023-04-03T11:40:25;15.80;99.90
19017;DHT22;9641;51.494;6.670;2023-04-03T11:42:55;13.60;99.90
19017;DHT22;9641;51.494;6.670;2023-04-03T11:45:36;12.90;99.90
19017;DHT22;9641;51.494;6.670;2023-04-03T11:48:06;12.00;99.90
19017;DHT22;9641;51.494;6.670;2023-04-03T11:50:44;12.00;99.90
19017;DHT22;9641;51.494;6.670;2023-04-03T11:53:30;12.90;99.90
19017;DHT22;9641;51.494;6.670;2023-04-03T11:56:03;12.60;99.90
19017;DHT22;9641;51.494;6.670;2023-04-03T11:58:32;12.60;99.90
19017;DHT22;9641;51.494;6.670;2023-04-03T12:01:02;13.40;99.90
19017;DHT22;9641;51.494;6.670;2023-04-03T12:07:02;14.10;99.90
19017;DHT22;9641;51.494;6.670;2023-04-03T12:10:00;14.20;99.90
19017;DHT22;9641;51.494;6.670;2023-04-03T12:12:31;14.50;99.90
19017;DHT22;9641;51.494;6.670;2023-04-03T12:15:25;14.70;99.90
19017;DHT22;9641;51.494;6.670;2023-04-03T12:17:53;15.70;99.90
19017;DHT22;9641;51.494;6.670;2023-04-03T12:20:54;16.00;99.90
19017;DHT22;9641;51.494;6.670;2023-04-03T12:23:30;16.10;99.90
19017;DHT22;9641;51.494;6.670;2023-04-03T12:26:08;15.50;99.90
19017;DHT22;9641;51.494;6.670;2023-04-03T12:28:45;14.80;99.90
19017;DHT22;9641;51.494;6.670;2023-04-03T12:31:14;15.40;99.90
19017;DHT22;9641;51.494;6.670;2023-04-03T12:34:05;15.50;99.90
19017;DHT22;9641;51.494;6.670;2023-04-03T12:36:45;14.10;99.90
19017;DHT22;9641;51.494;6.670;2023-04-03T12:39:35;13.70;99.90
19017;DHT22;9641;51.494;6.670;2023-04-03T12:42:16;13.80;99.90
19017;DHT22;9641;51.494;6.670;2023-04-03T12:44:49;15.00;99.90
19017;DHT22;9641;51.494;6.670;2023-04-03T12:47:28;15.40;99.90
19017;DHT22;9641;51.494;6.670;2023-04-03T12:49:59;14.00;99.90
19017;DHT22;9641;51.494;6.670;2023-04-03T12:52:37;13.50;99.90
19017;DHT22;9641;51.494;6.670;2023-04-03T12:55:16;14.60;99.90
19017;DHT22;9641;51.494;6.670;2023-04-03T12:57:44;15.50;99.90
19017;DHT22;9641;51.494;6.670;2023-04-03T13:00:32;17.50;99.90
19017;DHT22;9641;51.494;6.670;2023-04-03T13:03:00;18.60;99.90
19017;DHT22;9641;51.494;6.670;2023-04-03T13:05:28;18.50;99.90
19017;DHT22;9641;51.494;6.670;2023-04-03T13:07:59;17.10;99.90
19017;DHT22;9641;51.494;6.670;2023-04-03T13:10:29;17.60;99.90
19017;DHT22;9641;51.494;6.670;2023-04-03T13:12:58;18.20;99.90
19017;DHT22;9641;51.494;6.670;2023-04-03T13:15:27;17.40;99.90
19017;DHT22;9641;51.494;6.670;2023-04-03T13:17:55;16.50;99.90
19017;DHT22;9641;51.494;6.670;2023-04-03T13:20:25;15.70;99.90
19017;DHT22;9641;51.494;6.670;2023-04-03T13:22:57;15.30;99.90
19017;DHT22;9641;51.494;6.670;2023-04-03T13:25:28;15.30;99.90
19017;DHT22;9641;51.494;6.670;2023-04-03T13:27:57;16.20;99.90
19017;DHT22;9641;51.494;6.670;2023-04-03T13:30:28;15.20;99.90
19017;DHT22;9641;51.494;6.670;2023-04-03T13:32:57;15.00;99.90
19017;DHT22;9641;51.494;6.670;2023-04-03T13:35:32;14.60;99.90
19017;DHT22;9641;51.494;6.670;2023-04-03T13:38:03;15.60;99.90
19017;DHT22;9641;51.494;6.670;2023-04-03T13:40:32;16.40;99.90
19017;DHT22;9641;51.494;6.670;2023-04-03T13:43:02;15.20;99.90
19017;DHT22;9641;51.494;6.670;2023-04-03T13:45:30;14.80;99.90
19017;DHT22;9641;51.494;6.670;2023-04-03T13:48:14;15.10;99.90
19017;DHT22;9641;51.494;6.670;2023-04-03T13:50:55;15.50;99.90
19017;DHT22;9641;51.494;6.670;2023-04-03T13:53:24;14.10;99.90
19017;DHT22;9641;51.494;6.670;2023-04-03T13:56:00;15.90;99.90
19017;DHT22;9641;51.494;6.670;2023-04-03T13:58:32;16.40;99.90
19017;DHT22;9641;51.494;6.670;2023-04-03T14:01:07;16.20;99.90
19017;DHT22;9641;51.494;6.670;2023-04-03T14:03:41;15.50;99.90
19017;DHT22;9641;51.494;6.670;2023-04-03T14:06:11;14.30;99.90
19017;DHT22;9641;51.494;6.670;2023-04-03T14:08:38;15.10;99.90
19017;DHT22;9641;51.494;6.670;2023-04-03T14:11:11;14.40;99.90
19017;DHT22;9641;51.494;6.670;2023-04-03T14:13:39;13.80;99.90
19017;DHT22;9641;51.494;6.670;2023-04-03T14:16:07;13.90;99.90
19017;DHT22;9641;51.494;6.670;2023-04-03T14:18:34;14.50;99.90
19017;DHT22;9641;51.494;6.670;2023-04-03T14:21:02;14.50;99.90
19017;DHT22;9641;51.494;6.670;2023-04-03T14:23:29;14.80;99.90
19017;DHT22;9641;51.494;6.670;2023-04-03T14:25:56;14.90;99.90
19017;DHT22;9641;51.494;6.670;2023-04-03T14:28:25;15.50;99.90
19017;DHT22;9641;51.494;6.670;2023-04-03T14:30:52;17.00;99.90
19017;DHT22;9641;51.494;6.670;2023-04-03T14:33:21;17.30;99.90
19017;DHT22;9641;51.494;6.670;2023-04-03T14:35:48;18.10;99.90
19017;DHT22;9641;51.494;6.670;2023-04-03T14:38:22;19.20;99.90
19017;DHT22;9641;51.494;6.670;2023-04-03T14:40:51;18.60;99.90
19017;DHT22;9641;51.494;6.670;2023-04-03T14:43:18;16.00;99.90
19017;DHT22;9641;51.494;6.670;2023-04-03T14:45:47;15.00;99.90
19017;DHT22;9641;51.494;6.670;2023-04-03T14:48:18;15.50;99.90
19017;DHT22;9641;51.494;6.670;2023-04-03T14:50:46;15.70;99.90
19017;DHT22;9641;51.494;6.670;2023-04-03T14:53:14;14.70;99.90
19017;DHT22;9641;51.494;6.670;2023-04-03T14:55:44;14.10;99.90
19017;DHT22;9641;51.494;6.670;2023-04-03T14:58:13;13.90;99.90
19017;DHT22;9641;51.494;6.670;2023-04-03T15:00:41;14.90;99.90
19017;DHT22;9641;51.494;6.670;2023-04-03T15:03:14;15.10;99.90
19017;DHT22;9641;51.494;6.670;2023-04-03T15:05:42;15.70;99.90
19017;DHT22;9641;51.494;6.670;2023-04-03T15:08:17;15.60;99.90
19017;DHT22;9641;51.494;6.670;2023-04-03T15:10:46;14.00;99.90
19017;DHT22;9641;51.494;6.670;2023-04-03T15:13:13;13.80;99.90
19017;DHT22;9641;51.494;6.670;2023-04-03T15:15:40;14.40;99.90
19017;DHT22;9641;51.494;6.670;2023-04-03T15:18:14;15.30;99.90
19017;DHT22;9641;51.494;6.670;2023-04-03T15:20:41;15.00;99.90
19017;DHT22;9641;51.494;6.670;2023-04-03T15:23:10;14.60;99.90
19017;DHT22;9641;51.494;6.670;2023-04-03T15:25:37;14.20;99.90
19017;DHT22;9641;51.494;6.670;2023-04-03T15:28:06;14.70;99.90
19017;DHT22;9641;51.494;6.670;2023-04-03T15:30:41;14.00;99.90
19017;DHT22;9641;51.494;6.670;2023-04-03T15:33:08;14.20;99.90
19017;DHT22;9641;51.494;6.670;2023-04-03T15:35:36;15.80;99.90
19017;DHT22;9641;51.494;6.670;2023-04-03T15:38:03;16.80;99.90
19017;DHT22;9641;51.494;6.670;2023-04-03T15:40:30;17.70;99.90
19017;DHT22;9641;51.494;6.670;2023-04-03T15:42:57;17.50;99.90
19017;DHT22;9641;51.494;6.670;2023-04-03T15:45:24;17.40;99.90
19017;DHT22;9641;51.494;6.670;2023-04-03T15:47:51;16.90;99.90
19017;DHT22;9641;51.494;6.670;2023-04-03T15:50:18;16.00;99.90
19017;DHT22;9641;51.494;6.670;2023-04-03T15:52:46;15.20;99.90
19017;DHT22;9641;51.494;6.670;2023-04-03T15:55:13;15.20;99.90
19017;DHT22;9641;51.494;6.670;2023-04-03T15:57:40;14.60;99.90
19017;DHT22;9641;51.494;6.670;2023-04-03T16:00:08;13.90;99.90
19017;DHT22;9641;51.494;6.670;2023-04-03T16:02:35;13.80;99.90
19017;DHT22;9641;51.494;6.670;2023-04-03T16:05:03;13.30;99.90
19017;DHT22;9641;51.494;6.670;2023-04-03T16:07:30;12.90;99.90
19017;DHT22;9641;51.494;6.670;2023-04-03T16:09:58;13.10;99.90
19017;DHT22;9641;51.494;6.670;2023-04-03T16:12:25;13.50;99.90
19017;DHT22;9641;51.494;6.670;2023-04-03T16:14:52;13.10;99.90
19017;DHT22;9641;51.494;6.670;2023-04-03T16:17:19;13.50;99.90
19017;DHT22;9641;51.494;6.670;2023-04-03T16:19:46;13.50;99.90
19017;DHT22;9641;51.494;6.670;2023-04-03T16:22:13;13.40;99.90
19017;DHT22;9641;51.494;6.670;2023-04-03T16:24:40;13.40;99.90
19017;DHT22;9641;51.494;6.670;2023-04-03T16:27:08;14.00;99.90